Coloma, WI (54930)

1:02 PM CDT on August 28, 2016 (GMT -0500)
Coloma Farms | | Change Station

Elev 1060 ft 44.02 °N, 89.60 °W | Updated 2 minutes ago

Overcast
Overcast
77.0 °F
Feels Like 79 °F
N
6.0
Wind Variable Wind from SSW
Gusts 9.0 mph

Today
High -- | Low -- °F
--% Chance of Precip.
Yesterday
High -- | Low -- °F
Precip. -- in
Pressure 30.27 in
Visibility 10.0 miles
Clouds Overcast 2700 ft
Heat Index 79 °F
Dew Point 66 °F
Humidity 69%
Rainfall 0.00 in
Snow Depth Not available.
6:17 AM 7:40 PM
Waning Crescent, 14% visible
METAR KY50 281756Z AUTO 19003KT 10SM OVC027 24/18 A3023 RMK AO2 SLP251 P0001 6//// T02440183 10250 20183 50000
Pressure 30.27 in
Visibility 10.0 miles
Clouds Overcast 2700 ft
Heat Index 79 °F
Dew Point 66 °F
Humidity 69%
Rainfall 0.00 in
Snow Depth Not available.
6:17 AM 7:40 PM
Waning Crescent, 14% visible
METAR KY50 281756Z AUTO 19003KT 10SM OVC027 24/18 A3023 RMK AO2 SLP251 P0001 6//// T02440183 10250 20183 50000

10-Day Weather Forecast

Almanac

Astronomy

Aug. 28, 2016 Rise Set
Actual Time
Civil Twilight
Nautical Twilight
Astronomical Twilight
Moon
Length of Visible Light
Length of Day
Tomorrow will be .
, % of the Moon is Illuminated

Today's Extremes

State Highs State Lows

Community

WunderPhotos

Upload Photos

1,935,642 photos uploaded!

WunderBlog® & News

Nearby

Air Quality

  Air Quality AQ Index Pollutant
Not available.

Snow Depth

Station Depth Elevation

Earthquake Activity

City Distance Mag. Time & Date
Minimum magnitude displayed is 2.5.

Coastal Water Temperatures

Place Temperature

Stations

Nearby Weather Stations

Station Location Temp. Windchill Dew Point Humidity Wind Precip. Elev Updated Type
                   

Watches & Warnings

There are currently no watches in effect.